Tiempo atmosférico en la estación meteorológica de Bicorp, València/Valencia (299 m.)



Fecha
DESCASC
Temp. máxima en grados centígrados (hora)
DESCASC
Temp. mínima en grados centígrados (hora)
DESCASC
Temp. media en grados centígrados
DESCASC
Racha de viento máxima en m/sg (hora)
DESCASC
Velocidad máxima media en intervalos de 10 minutos(hora)
DESCASC
Precipitaciones diarias en mm
DESCASC
Precipitaciones de 00:00 a 06:00 en mm
DESCASC
Precipitaciones de 06:00 a 12:00 en mm
DESCASC
Precipitaciones de 12:00 a 18:00 en mm
DESCASC
Precipitaciones de 18:00 a 24:00 en mm
DESCASC
24-12-2020 16.8 (12:00) 8.5 (00:00) 12.6 7.78 (00:10) 3.33 (00:20) 0 0 0 0 0
21-01-2021 17.3 (15:40) 8.7 (00:00) 13 14.72 (15:20) 8.61 (15:20) 0 0 0 0 0
20-01-2021 12.6 (11:50) 2.1 (00:00) 7.4 8.06 (11:50) 3.61 (11:50) 1 0 0 1 0
19-01-2021 18.1 (14:10) 1.2 (00:00) 9.7 4.72 (06:40) 3.06 (15:00) 0 0 0 0 0
18-01-2021 16 (15:20) 1.9 (00:00) 8.9 4.17 (13:50) 2.78 (19:40) 0 0 0 0 0
17-01-2021 19.3 (14:50) 2.2 (00:00) 10.7 7.78 (13:40) 4.44 (12:50) 0 0 0 0 0
16-01-2021 16.4 (15:20) 0.7 (00:00) 8.5 6.11 (14:00) 3.61 (13:30) 0 0 0 0 0
15-01-2021 15.7 (14:20) 3.6 (00:00) 9.6 7.78 (05:00) 3.89 (07:10) 0 0 0 0 0
14-01-2021 15.4 (14:40) -1.6 (07:00) 6.9 5 (15:30) 2.78 (12:40) 0 0 0 0 0
13-01-2021 13.7 (15:20) -1.6 (-00:0) 6 6.11 (15:50) 3.61 (14:20) 0 0 0 0 0
12-01-2021 10.2 (15:00) -2.9 (-00:0) 3.6 8.61 (14:40) 4.72 (16:10) 0 0 0 0 0
11-01-2021 9.3 (11:40) -1.4 (-00:0) 4 5.28 (11:00) 3.33 (11:00) 0 0 0 0 0
10-01-2021 7.1 (14:50) -0.6 (05:10) 3.2 3.89 (02:10) 2.5 (02:30) 0.2 0 0.2 0 0
06-01-2021 10.6 (14:20) -2.8 (-00:0) 3.9 3.61 (14:20) 2.22 (15:40) 0 0 0 0 0
05-01-2021 10.9 (14:20) -1.8 (-00:0) 4.5 8.89 (00:10) 5.83 (00:10) 0 0 0 0 0
04-01-2021 9.5 (15:20) 3.7 (00:00) 6.6 13.89 (05:00) 7.22 (07:00) 0 0 0 0 0
03-01-2021 11.4 (15:10) 2.6 (00:00) 7 11.67 (23:40) 6.39 (23:50) 0 0 0 0 0
02-01-2021 9.3 (15:00) 2.7 (00:00) 6 13.33 (12:10) 5.56 (00:50) 0 0 0 0 0
01-01-2021 12.4 (13:40) 4.2 (00:00) 8.3 12.22 (02:10) 5.83 (07:50) 0 0 0 0 0
31-12-2020 12.9 (15:10) 2.8 (00:00) 7.8 15.83 (23:59) 8.06 (23:59) 0 0 0 0 0
30-12-2020 12.1 (15:00) 4.4 (00:00) 8.3 12.22 (03:40) 5.83 (02:10) 0 0 0 0 0
29-12-2020 12.2 (14:20) 6.2 (00:00) 9.2 17.22 (10:10) 8.89 (10:10) 0 0 0 0 0
28-12-2020 14 (15:00) 7.8 (00:00) 10.9 25.28 (03:50) 12.78 (06:20) 1.6 0 1.6 0 0
27-12-2020 14.2 (15:40) -1.7 (-00:0) 6.2 15.56 (22:10) 6.67 (18:20) 0 0 0 0 0
26-12-2020 12.8 (14:10) 0.4 (00:00) 6.6 6.67 (10:00) 3.89 (14:50) 0 0 0 0 0
25-12-2020 13.2 (12:20) 4.1 (00:00) 8.6 10.83 (14:40) 5 (14:50) 0 0 0 0 0
23-12-2020 20.4 (14:30) 6.2 (03:20) 13.3 8.89 (14:40) 5 (13:10) 0 0 0 0 0
09-01-2021 4.7 (16:20) 0.4 (00:00) 2.5 5.83 (02:40) 2.5 (01:10) 12.8 7.8 4.6 0.2 0.2
07-01-2021 4.4 (12:30) 2.6 (00:00) 3.5 5 (11:10) 2.5 (10:40) 16.2 3.4 6.6 2.2 4
08-01-2021 4.3 (19:40) 1.3 (00:00) 2.8 9.44 (18:00) 4.72 (18:00) 26.8 7.4 4.6 8 6.8

Gráficas

Temp. máximas Temp. mínimas Temp. medias Precipitaciones Rachas de viento máximas Velocidades máximas media en intervalos de 10 minutos

Datos horarios

Fecha y hora oficial Temperatura (ºC) Velocidad del viento (km/h) Dirección del viento Racha (km/h) Dirección de racha Precipitación (mm) Presión (hPa) Tendencia (hPa) Humedad (%)
2021-01-21 23:00:00 13.7 4 Norte 26 Sudeste 0 -- -- 65
2021-01-21 22:00:00 14.7 11 Sudoeste 37 Sudeste 0 -- -- 60
2021-01-21 21:00:00 13.7 9 Nordeste 18 Este 0 -- -- 64
2021-01-21 20:00:00 14.2 9 Sur 28 Sur 0 -- -- 62
2021-01-21 19:00:00 14.5 9 Sur 23 Sudoeste 0 -- -- 58
2021-01-21 18:00:00 15.4 8 Sudoeste 20 Sudoeste 0 -- -- 56
2021-01-21 17:00:00 16.4 15 Sudoeste 40 Sudoeste 0 -- -- 50
2021-01-21 16:00:00 16.6 17 Sudoeste 53 Sudoeste 0 -- -- 50
2021-01-21 15:00:00 16.7 21 Sudoeste 50 Sudoeste 0 -- -- 53
2021-01-21 14:00:00 16.7 20 Sudoeste 51 Oeste 0 -- -- 53
2021-01-21 13:00:00 16.1 11 Sudoeste 37 Sudoeste 0 -- -- 55
2021-01-21 12:00:00 15.6 16 Oeste 52 Sudoeste 0 -- -- 59
2021-01-21 11:00:00 14.8 23 Sudoeste 42 Sudoeste 0 -- -- 61
2021-01-21 10:00:00 14.3 10 Sudoeste 23 Sudoeste 0 -- -- 62
2021-01-21 09:00:00 12.5 12 Oeste 44 Sudoeste 0 -- -- 67
2021-01-21 08:00:00 11.7 14 Sudoeste 39 Sudoeste 0 -- -- 70
2021-01-21 07:00:00 11.1 11 Sudoeste 30 Sudoeste 0 -- -- 73
2021-01-21 06:00:00 11.1 6 Sudoeste 35 Oeste 0 -- -- 70
2021-01-21 05:00:00 11.8 16 Sudoeste 38 Sudoeste 0 -- -- 69
2021-01-21 04:00:00 12.1 20 Sudoeste 36 Sudoeste 0 -- -- 70
2021-01-21 03:00:00 11.5 12 Sudoeste 30 Oeste 0 -- -- 72
2021-01-21 02:00:00 10.6 6 Sudoeste 19 Sudoeste 0 -- -- 78
2021-01-21 01:00:00 10.5 6 Sudoeste 19 Sudoeste 0 -- -- 75
2021-01-21 00:00:00 8.7 5 Sudoeste 15 Oeste 0 -- -- 79
2021-01-20 23:00:00 8.4 3 Oeste 12 Oeste 0 -- -- 86
2021-01-20 22:00:00 7.6 0 Calma 10 Oeste 0 -- -- 88
2021-01-20 21:00:00 6.3 3 Oeste 8 Sudoeste 0 -- -- 90
2021-01-20 20:00:00 6.5 0 Calma 5 Sudoeste 0 -- -- 88
2021-01-20 19:00:00 8.3 4 Norte 14 Oeste 0 -- -- 85
2021-01-20 18:00:00 9.4 5 Oeste 12 Noroeste 0.2 -- -- 87
2021-01-20 17:00:00 9.7 0 Calma 4 Sur 0 -- -- 89
2021-01-20 16:00:00 9.7 0 Calma 10 Nordeste 0 -- -- 87
2021-01-20 15:00:00 9.2 3 Nordeste 10 Sudoeste 0.6 -- -- 87
2021-01-20 14:00:00 11 8 Sudoeste 22 Sudoeste 0.2 -- -- 70
2021-01-20 13:00:00 11.9 4 Sudoeste 21 Sudoeste 0 -- -- 57
2021-01-20 12:00:00 12.4 13 Sudoeste 29 Sudoeste 0 -- -- 53
2021-01-20 11:00:00 10.5 3 Sur 18 Sudoeste 0 -- -- 64
2021-01-20 10:00:00 7 0 Calma 8 Oeste 0 -- -- 77
2021-01-20 09:00:00 4 3 Oeste 9 Oeste 0 -- -- 83
2021-01-20 08:00:00 3.7 0 Calma 8 Oeste 0 -- -- 85
2021-01-20 07:00:00 3.4 2 Oeste 8 Oeste 0 -- -- 89
2021-01-20 06:00:00 2.3 0 Calma 4 Noroeste 0 -- -- 90
2021-01-20 05:00:00 2.6 0 Calma 4 Sudoeste 0 -- -- 87
2021-01-20 04:00:00 2.7 0 Calma 9 Sudoeste 0 -- -- 87
2021-01-20 03:00:00 3.6 5 Sudoeste 10 Oeste 0 -- -- 85
2021-01-20 02:00:00 3.7 0 Calma 8 Oeste 0 -- -- 87
2021-01-20 01:00:00 4 0 Calma 10 Sudoeste 0 -- -- 80
2021-01-20 00:00:00 5.8 4 Oeste 10 Oeste 0 -- -- 74
2021-01-19 23:00:00 4.3 0 Calma 3 Norte 0 -- -- 77
2021-01-19 22:00:00 5.9 0 Calma 8 Oeste 0 -- -- 71
2021-01-19 21:00:00 7.2 0 Calma 11 Oeste 0 -- -- 67
2021-01-19 20:00:00 9.5 7 Oeste 14 Oeste 0 -- -- 61
2021-01-19 19:00:00 10.1 7 Oeste 12 Sudoeste 0 -- -- 65
2021-01-19 18:00:00 13.9 6 Oeste 10 Oeste 0 -- -- 52
2021-01-19 17:00:00 17.3 3 Sudeste 8 Este 0 -- -- 43
2021-01-19 16:00:00 17.8 3 Sudeste 15 Este 0 -- -- 43
2021-01-19 15:00:00 17.4 11 Este 16 Sudeste 0 -- -- 44
2021-01-19 14:00:00 17.7 4 Sudeste 10 Este 0 -- -- 42
2021-01-19 13:00:00 15.4 5 Nordeste 10 Este 0 -- -- 50
2021-01-19 12:00:00 14.9 5 Sudeste 10 Este 0 -- -- 52
2021-01-19 11:00:00 11.7 3 Este 5 Este 0 -- -- 56
2021-01-19 10:00:00 8.9 0 Calma 8 Noroeste 0 -- -- 69
2021-01-19 09:00:00 3.8 3 Oeste 14 Sudoeste 0 -- -- 82
2021-01-19 08:00:00 4 7 Oeste 12 Oeste 0 -- -- 80
2021-01-19 07:00:00 4 6 Oeste 17 Oeste 0 -- -- 81
2021-01-19 06:00:00 2.7 0 Calma 13 Sudoeste 0 -- -- 87
2021-01-19 05:00:00 2.6 0 Calma 4 Noroeste 0 -- -- 88
2021-01-19 04:00:00 1.4 0 Calma 4 Sudoeste 0 -- -- 93
2021-01-19 03:00:00 1.3 0 Calma 5 Oeste 0 -- -- 92
2021-01-19 02:00:00 1.7 0 Calma 2 Sur 0 -- -- 91
2021-01-19 01:00:00 1.9 0 Calma 8 Oeste 0 -- -- 92
2021-01-19 00:00:00 2 0 Calma 0 Calma 0 -- -- 90
2021-01-18 23:00:00 2.6 0 Calma 9 Oeste 0 -- -- 88
2021-01-18 22:00:00 3.4 0 Calma 6 Sudoeste 0 -- -- 85
2021-01-18 21:00:00 5.8 0 Calma 12 Oeste 0 -- -- 77
2021-01-18 20:00:00 8.4 6 Oeste 13 Oeste 0 -- -- 68
2021-01-18 19:00:00 9.6 7 Oeste 12 Sudoeste 0 -- -- 71
2021-01-18 18:00:00 12.6 4 Oeste 7 Oeste 0 -- -- 64
2021-01-18 17:00:00 15.1 4 Este 12 Este 0 -- -- 55
2021-01-18 16:00:00 15.8 7 Sudeste 13 Este 0 -- -- 51
2021-01-18 15:00:00 15.6 5 Sudeste 15 Este 0 -- -- 52
2021-01-18 14:00:00 15.4 6 Sudeste 15 Este 0 -- -- 55
2021-01-18 13:00:00 13.5 9 Nordeste 15 Nordeste 0 -- -- 60
2021-01-18 12:00:00 13.8 5 Este 10 Este 0 -- -- 58
2021-01-18 11:00:00 13 4 Sudeste 6 Sudeste 0 -- -- 55
2021-01-18 10:00:00 7.7 3 Nordeste 4 Norte 0 -- -- 72
2021-01-18 09:00:00 4 0 Calma 5 Oeste 0 -- -- 84
2021-01-18 08:00:00 4.4 4 Oeste 9 Oeste 0 -- -- 79
2021-01-18 07:00:00 3.5 0 Calma 10 Oeste 0 -- -- 81
2021-01-18 06:00:00 4 5 Oeste 9 Oeste 0 -- -- 81
2021-01-18 05:00:00 5 0 Calma 10 Oeste 0 -- -- 73
2021-01-18 04:00:00 6.5 7 Oeste 13 Oeste 0 -- -- 68
2021-01-18 03:00:00 6.1 5 Norte 12 Nordeste 0 -- -- 65
2021-01-18 02:00:00 7.1 4 Sudoeste 9 Sudoeste 0 -- -- 55
2021-01-18 01:00:00 8.7 4 Sur 12 Sudoeste 0 -- -- 50
2021-01-18 00:00:00 10.4 3 Sur 22 Noroeste 0 -- -- 48
2021-01-17 23:00:00 9.8 2 Sur 10 Noroeste 0 -- -- 46
2021-01-17 22:00:00 7.4 3 Sudoeste 13 Sudoeste 0 -- -- 46
2021-01-17 21:00:00 8 2 Noroeste 6 Sudoeste 0 -- -- 43
2021-01-17 20:00:00 11 4 Sudoeste 22 Sudoeste 0 -- -- 34
2021-01-17 19:00:00 11.9 6 Oeste 17 Oeste 0 -- -- 31
2021-01-17 18:00:00 13.3 3 Sudoeste 13 Sudoeste 0 -- -- 32
2021-01-17 17:00:00 17.9 5 Sudoeste 24 Oeste 0 -- -- 23
2021-01-17 16:00:00 18.9 7 Sudoeste 24 Sudoeste 0 -- -- 22
2021-01-17 15:00:00 19.2 8 Sudoeste 21 Noroeste 0 -- -- 22
2021-01-17 14:00:00 17.6 12 Sudoeste 28 Sudoeste 0 -- -- 26
2021-01-17 13:00:00 16.3 15 Sudoeste 27 Sudoeste 0 -- -- 30
2021-01-17 12:00:00 16.7 8 Sudoeste 15 Sudoeste 0 -- -- 30
2021-01-17 11:00:00 12.6 0 Calma 8 Nordeste 0 -- -- 36
2021-01-17 10:00:00 9.3 4 Nordeste 5 Nordeste 0 -- -- 46
2021-01-17 09:00:00 4.2 2 Nordeste 5 Norte 0 -- -- 62
2021-01-17 08:00:00 3 2 Norte 5 Norte 0 -- -- 62
2021-01-17 07:00:00 2.9 0 Calma 5 Nordeste 0 -- -- 62
2021-01-17 06:00:00 3.6 0 Calma 7 Oeste 0 -- -- 59
2021-01-17 05:00:00 4.8 2 Oeste 6 Oeste 0 -- -- 53
2021-01-17 04:00:00 4 2 Noroeste 5 Norte 0 -- -- 60
2021-01-17 03:00:00 2.8 3 Norte 4 Norte 0 -- -- 66
2021-01-17 02:00:00 2.5 0 Calma 3 Norte 0 -- -- 67
2021-01-17 01:00:00 2.7 0 Calma 5 Norte 0 -- -- 65
2021-01-17 00:00:00 2.7 0 Calma 3 Norte 0 -- -- 65
2021-01-16 23:00:00 3.6 2 Noroeste 7 Nordeste 0 -- -- 62
2021-01-16 22:00:00 3.1 0 Calma 7 Sudoeste 0 -- -- 65
2021-01-16 21:00:00 4.4 0 Calma 6 Norte 0 -- -- 61
2021-01-16 20:00:00 5 2 Nordeste 7 Norte 0 -- -- 63
2021-01-16 19:00:00 7.2 3 Nordeste 12 Sudoeste 0 -- -- 54
2021-01-16 18:00:00 10.8 4 Sudoeste 16 Sur 0 -- -- 43
2021-01-16 17:00:00 14.8 9 Sudoeste 19 Oeste 0 -- -- 32
2021-01-16 16:00:00 16.1 10 Sudoeste 18 Sudoeste 0 -- -- 29
2021-01-16 15:00:00 15.8 9 Sudoeste 19 Sudoeste 0 -- -- 30
2021-01-16 14:00:00 14.6 13 Sur 22 Sudoeste 0 -- -- 33
2021-01-16 13:00:00 14.2 11 Sudoeste 20 Sudoeste 0 -- -- 35
2021-01-16 12:00:00 12.6 9 Sudoeste 18 Sudoeste 0 -- -- 38
2021-01-16 11:00:00 10.6 8 Sudoeste 16 Sudoeste 0 -- -- 42
2021-01-16 10:00:00 6.3 2 Nordeste 4 Nordeste 0 -- -- 59
2021-01-16 09:00:00 1.3 0 Calma 4 Noroeste 0 -- -- 76
2021-01-16 08:00:00 1.4 0 Calma 5 Noroeste 0 -- -- 71
2021-01-16 07:00:00 1.3 0 Calma 6 Sudoeste 0 -- -- 72
2021-01-16 06:00:00 2.7 0 Calma 11 Sudoeste 0 -- -- 65
2021-01-16 05:00:00 4 2 Norte 9 Oeste 0 -- -- 59
2021-01-16 04:00:00 3.5 2 Sudoeste 12 Sudoeste 0 -- -- 63
2021-01-16 03:00:00 4.8 3 Norte 9 Oeste 0 -- -- 56
2021-01-16 02:00:00 5.9 0 Calma 12 Noroeste 0 -- -- 53
2021-01-16 01:00:00 8.3 5 Noroeste 19 Noroeste 0 -- -- 43
2021-01-16 00:00:00 8.1 4 Noroeste 20 Oeste 0 -- -- 44
2021-01-15 23:00:00 8.7 4 Noroeste 21 Noroeste 0 -- -- 44
2021-01-15 22:00:00 9.1 6 Noroeste 24 Noroeste 0 -- -- 45
2021-01-15 21:00:00 9.5 6 Oeste 22 Oeste 0 -- -- 47
2021-01-15 20:00:00 10.6 6 Oeste 25 Noroeste 0 -- -- 45
2021-01-15 19:00:00 11 10 Noroeste 22 Oeste 0 -- -- 42
2021-01-15 18:00:00 11.5 6 Noroeste 23 Noroeste 0 -- -- 41
2021-01-15 17:00:00 14 5 Norte 24 Sur 0 -- -- 35
2021-01-15 16:00:00 13.8 8 Sudoeste 28 Norte -- -- -- 39
2021-01-15 15:00:00 15.4 6 Sudoeste 20 Noroeste 0 -- -- 37
2021-01-15 14:00:00 15.5 8 Sudoeste 19 Sudoeste 0 -- -- 37
2021-01-15 13:00:00 14.1 13 Sudoeste 25 Sudoeste 0 -- -- 42
2021-01-15 12:00:00 12.9 10 Sur 21 Sudoeste 0 -- -- 46
2021-01-15 11:00:00 11.4 9 Sudoeste 15 Sur 0 -- -- 48
2021-01-15 10:00:00 8.4 3 Sudeste 15 Sudoeste 0 -- -- 58
2021-01-15 09:00:00 4.3 3 Norte 10 Sur 0 -- -- 73
2021-01-15 08:00:00 4.6 2 Oeste 24 Sudoeste 0 -- -- 68
2021-01-15 07:00:00 6.1 11 Sur 25 Sur 0 -- -- 64
2021-01-15 06:00:00 6.5 9 Sudoeste 18 Sur 0 -- -- 63
2021-01-15 05:00:00 6.9 9 Sudoeste 28 Sur 0 -- -- 62
2021-01-15 04:00:00 7.1 4 Sur 19 Sur 0 -- -- 62
2021-01-15 03:00:00 6.6 2 Sudoeste 18 Sur 0 -- -- 64
2021-01-15 02:00:00 6.5 3 Oeste 11 Sudeste 0 -- -- 64
2021-01-15 01:00:00 6.1 2 Sudoeste 12 Sur 0 -- -- 63
2021-01-15 00:00:00 7.2 8 Sudoeste 16 Sudoeste 0 -- -- 53
2021-01-14 23:00:00 5.5 4 Sudoeste 11 Sudoeste 0 -- -- 56
2021-01-14 22:00:00 6.3 2 Este 9 Sur 0 -- -- 52
2021-01-14 21:00:00 4.8 2 Nordeste 6 Este 0 -- -- 60
2021-01-14 20:00:00 5.6 0 Calma 5 Norte -- -- -- 61
2021-01-14 19:00:00 7.3 0 Calma 6 Oeste 0 -- -- 57
2021-01-14 18:00:00 10.1 3 Sudoeste 11 Sudoeste 0 -- -- 49
2021-01-14 17:00:00 14 5 Sudoeste 15 Sudoeste 0 -- -- 37
2021-01-14 16:00:00 14.1 8 Sudoeste 18 Sudoeste 0 -- -- 35
2021-01-14 15:00:00 15.3 9 Sudoeste 17 Sur 0 -- -- 30
2021-01-14 14:00:00 14.4 9 Sudoeste 16 Sudoeste 0 -- -- 33
2021-01-14 13:00:00 13.2 9 Sudoeste 17 Sudoeste 0 -- -- 35
2021-01-14 12:00:00 12.1 7 Sudoeste 13 Sur 0 -- -- 37
2021-01-14 11:00:00 8.7 3 Nordeste 5 Nordeste 0 -- -- 50
2021-01-14 10:00:00 5.6 0 Calma 4 Norte 0 -- -- 66
2021-01-14 09:00:00 0 2 Oeste 9 Oeste 0 -- -- 86
2021-01-14 08:00:00 -1.4 0 Calma 4 Oeste 0 -- -- 89
2021-01-14 07:00:00 -1.6 0 Calma 3 Oeste 0 -- -- 89
2021-01-14 06:00:00 -1.2 0 Calma 5 Noroeste 0 -- -- 88
2021-01-14 05:00:00 -0.8 0 Calma 5 Oeste 0 -- -- 88
2021-01-14 04:00:00 -0.6 0 Calma 7 Oeste 0 -- -- 85
2021-01-14 03:00:00 0.4 4 Oeste 10 Oeste 0 -- -- 83
2021-01-14 02:00:00 1.1 0 Calma 8 Oeste 0 -- -- 77
2021-01-14 01:00:00 2.9 6 Oeste 9 Oeste 0 -- -- 69
2021-01-14 00:00:00 1.5 0 Calma 3 Sudoeste 0 -- -- 77
2021-01-13 23:00:00 1.6 0 Calma 4 Oeste 0 -- -- 76
2021-01-13 22:00:00 3.3 2 Noroeste 8 Oeste 0 -- -- 69
2021-01-13 21:00:00 3.5 2 Oeste 7 Oeste 0 -- -- 69
2021-01-13 20:00:00 4.6 0 Calma 10 Sudoeste 0 -- -- 68
2021-01-13 19:00:00 7.1 4 Oeste 10 Oeste 0 -- -- 58
2021-01-13 18:00:00 9.4 3 Oeste 9 Sudoeste 0 -- -- 54
2021-01-13 17:00:00 13.3 4 Sudoeste 16 Oeste 0 -- -- 39
2021-01-13 16:00:00 13.5 10 Sudoeste 22 Sudoeste 0 -- -- 37
2021-01-13 15:00:00 13.4 5 Este 21 Sudoeste 0 -- -- 37
2021-01-13 14:00:00 13 10 Sur 20 Sudoeste 0 -- -- 36
2021-01-13 13:00:00 12.5 8 Sudoeste 14 Sudoeste 0 -- -- 37
2021-01-13 12:00:00 11.1 5 Sudoeste 12 Sudoeste 0 -- -- 38
2021-01-13 11:00:00 8.6 5 Sudoeste 10 Sudoeste 0 -- -- 47
2021-01-13 10:00:00 4.9 3 Sudoeste 6 Sudoeste 0 -- -- 62
2021-01-13 09:00:00 -1.2 0 Calma 4 Noroeste 0 -- -- 82
2021-01-13 08:00:00 -1 3 Oeste 5 Oeste 0 -- -- 77
2021-01-13 07:00:00 -0.3 2 Norte 7 Oeste 0 -- -- 74
2021-01-13 06:00:00 -0.1 0 Calma 5 Oeste 0 -- -- 73
2021-01-13 05:00:00 0.2 0 Calma 7 Norte 0 -- -- 72
2021-01-13 04:00:00 1.1 3 Norte 5 Norte 0 -- -- 68
2021-01-13 03:00:00 0.4 0 Calma 8 Noroeste 0 -- -- 73
2021-01-13 02:00:00 -0.4 0 Calma 4 Norte 0 -- -- 77
2021-01-13 01:00:00 0 0 Calma 9 Sudoeste 0 -- -- 76
2021-01-13 00:00:00 0.1 0 Calma 9 Sudoeste 0 -- -- 77
2021-01-12 23:00:00 -0.8 0 Calma 5 Nordeste 0 -- -- 83
2021-01-12 22:00:00 -0.7 0 Calma 3 Norte 0 -- -- 80
2021-01-12 21:00:00 -0.2 0 Calma 3 Norte 0 -- -- 78
2021-01-12 20:00:00 1.1 0 Calma 7 Sudoeste 0 -- -- 71
2021-01-12 19:00:00 2.8 2 Norte 12 Sudoeste 0 -- -- 61
2021-01-12 18:00:00 5 3 Oeste 25 Sudoeste 0 -- -- 56
2021-01-12 17:00:00 8.3 13 Sudoeste 26 Sudoeste 0 -- -- 41
2021-01-12 16:00:00 9.5 13 Sudoeste 27 Sudoeste 0 -- -- 36
2021-01-12 15:00:00 10.2 13 Sudoeste 31 Sudoeste 0 -- -- 37
2021-01-12 14:00:00 9.7 14 Sudoeste 24 Sudoeste 0 -- -- 40
2021-01-12 13:00:00 9 9 Sudoeste 22 Sudoeste 0 -- -- 40
2021-01-12 12:00:00 7.2 11 Sudoeste 22 Sudoeste 0 -- -- 43
2021-01-12 11:00:00 5.7 8 Sudoeste 17 Sur 0 -- -- 46
2021-01-12 10:00:00 3.1 4 Nordeste 29 Sudoeste 0 -- -- 59
2021-01-12 09:00:00 -0.7 6 Sudoeste 27 Sudoeste 0 -- -- 69
2021-01-12 08:00:00 -2.8 0 Calma 6 Nordeste 0 -- -- 82
2021-01-12 07:00:00 -2.3 0 Calma 6 Oeste 0 -- -- 81
2021-01-12 06:00:00 -2.5 0 Calma 4 Oeste 0 -- -- 84
2021-01-12 05:00:00 -2.2 0 Calma 6 Noroeste 0 -- -- 85
2021-01-12 04:00:00 -1.9 0 Calma 4 Norte 0 -- -- 87
2021-01-12 03:00:00 -2.3 0 Calma 3 Sudoeste 0 -- -- 90
2021-01-12 02:00:00 -1.9 0 Calma 3 Norte 0 -- -- 89
2021-01-12 01:00:00 -1.7 0 Calma 2 Norte 0 -- -- 88
2021-01-12 00:00:00 -1.4 0 Calma 4 Sudoeste 0 -- -- 89
2021-01-11 23:00:00 -1 0 Calma 4 Sudoeste 0 -- -- 87
2021-01-11 22:00:00 -0.1 2 Sudoeste 6 Sudoeste 0 -- -- 86
2021-01-11 21:00:00 1.5 3 Norte 13 Sur 0 -- -- 80
2021-01-11 20:00:00 2.3 3 Sur 8 Sudoeste 0 -- -- 79
2021-01-11 19:00:00 4.3 3 Noroeste 7 Noroeste 0 -- -- 70
2021-01-11 18:00:00 6.4 3 Noroeste 7 Oeste 0 -- -- 67
2021-01-11 17:00:00 8.9 4 Oeste 17 Sudoeste 0 -- -- 60
2021-01-11 16:00:00 8.7 4 Sur 9 Este 0 -- -- 70
2021-01-11 15:00:00 7.3 3 Sudeste 12 Nordeste 0 -- -- 73
2021-01-11 14:00:00 7.2 6 Este 13 Este 0 -- -- 72
2021-01-11 13:00:00 8 4 Este 12 Sudoeste 0 -- -- 70
2021-01-11 12:00:00 8.9 5 Sur 16 Sudoeste 0 -- -- 64
2021-01-11 11:00:00 7.3 12 Sudoeste 19 Sudoeste 0 -- -- 71
2021-01-11 10:00:00 4.7 0 Calma 8 Oeste 0 -- -- 90
2021-01-11 09:00:00 2.4 4 Oeste 9 Oeste 0 -- -- 90
2021-01-11 08:00:00 3.9 3 Oeste 6 Sudoeste 0 -- -- 89
2021-01-11 07:00:00 4 0 Calma 3 Sudoeste 0 -- -- 92
2021-01-11 06:00:00 4.1 0 Calma 3 Oeste 0 -- -- 91
2021-01-11 05:00:00 4.1 2 Oeste 5 Sudoeste 0 -- -- 91
2021-01-11 04:00:00 4 2 Sudoeste 6 Oeste 0 -- -- 92
2021-01-11 03:00:00 3.8 0 Calma 5 Norte 0 -- -- 94
2021-01-11 02:00:00 3.9 0 Calma 10 Sudoeste 0 -- -- 91
2021-01-11 01:00:00 4.3 4 Sudoeste 9 Oeste 0 -- -- 92
2021-01-11 00:00:00 4.4 3 Oeste 6 Sudoeste 0 -- -- 92
2021-01-10 23:00:00 4.4 0 Calma 6 Oeste 0 -- -- 91
2021-01-10 22:00:00 4.7 3 Sudoeste 6 Oeste 0 -- -- 91
2021-01-10 21:00:00 4.8 0 Calma 5 Sudoeste 0 -- -- 91
2021-01-10 20:00:00 5.1 3 Sudoeste 7 Sudoeste 0 -- -- 91
2021-01-10 19:00:00 5.7 3 Oeste 5 Oeste 0 -- -- 90
2021-01-10 18:00:00 6.2 0 Calma 2 Oeste 0 -- -- 85
2021-01-10 17:00:00 6.5 0 Calma 6 Nordeste 0 -- -- 83
2021-01-10 16:00:00 6.7 5 Nordeste 13 Nordeste 0 -- -- 80
2021-01-10 15:00:00 7.1 4 Nordeste 9 Nordeste 0 -- -- 82
2021-01-10 14:00:00 6.2 2 Sudoeste 5 Sudoeste 0 -- -- 87
2021-01-10 13:00:00 5.3 3 Sudoeste 8 Sudoeste 0 -- -- 95
2021-01-10 12:00:00 3.8 2 Sudoeste 4 Sudoeste 0 -- -- 98
2021-01-10 11:00:00 1.8 0 Calma 2 Sudoeste 0 -- -- 97
2021-01-10 10:00:00 0.9 0 Calma 3 Este 0.2 -- -- 96
2021-01-10 09:00:00 0.7 0 Calma 4 Oeste 0 -- -- 96
2021-01-10 08:00:00 0.1 2 Sudoeste 5 Oeste 0 -- -- 95
2021-01-10 07:00:00 0.1 3 Oeste 11 Oeste 0 -- -- 94
2021-01-10 06:00:00 -0.1 4 Sudoeste 10 Oeste 0 -- -- 96
2021-01-10 05:00:00 -0.5 3 Oeste 9 Oeste 0 -- -- 96
2021-01-10 04:00:00 -0.3 0 Calma 6 Oeste 0 -- -- 96
2021-01-10 03:00:00 0.9 3 Oeste 14 Oeste 0 -- -- 96
2021-01-10 02:00:00 0.1 3 Oeste 9 Oeste 0 -- -- 96
2021-01-10 01:00:00 0.5 4 Noroeste 10 Oeste 0 -- -- 95
2021-01-10 00:00:00 0.5 0 Calma 11 Oeste 0 -- -- 96
2021-01-09 23:00:00 0.8 2 Noroeste 5 Noroeste 0 -- -- 95
2021-01-09 22:00:00 2.1 4 Oeste 10 Oeste 0 -- -- 95
2021-01-09 21:00:00 3.1 3 Oeste 6 Oeste 0 -- -- 95
2021-01-09 20:00:00 4.3 3 Sudoeste 8 Sudoeste 0.2 -- -- 95
2021-01-09 19:00:00 4.4 3 Sudoeste 9 Sudoeste 0 -- -- 95
2021-01-09 18:00:00 4.5 4 Sudoeste 8 Sudoeste 0.2 -- -- 95
2021-01-09 17:00:00 4.6 2 Sudoeste 10 Sudoeste 0 -- -- 94
2021-01-09 16:00:00 4.6 3 Sudoeste 9 Sudoeste 0 -- -- 94
2021-01-09 15:00:00 4.2 4 Sudoeste 11 Sudoeste 0 -- -- 94
2021-01-09 14:00:00 3.9 5 Sudoeste 12 Sudoeste 0 -- -- 96
2021-01-09 13:00:00 3.6 3 Sur 8 Sudoeste 0 -- -- 96
2021-01-09 12:00:00 2.9 5 Sudoeste 9 Sudoeste 0.2 -- -- 97
2021-01-09 11:00:00 2 4 Sudoeste 10 Oeste 0.6 -- -- 97
2021-01-09 10:00:00 1.5 3 Sudoeste 9 Oeste 0.8 -- -- 97
2021-01-09 09:00:00 1.2 4 Oeste 6 Oeste 0.8 -- -- 97
2021-01-09 08:00:00 1.4 4 Oeste 5 Oeste 1.2 -- -- 96
2021-01-09 07:00:00 1.9 0 Calma 5 Nordeste 1 -- -- 97
2021-01-09 06:00:00 2 2 Nordeste 5 Este 1.2 -- -- 96
2021-01-09 05:00:00 2.2 4 Este 11 Nordeste 1.4 -- -- 96
2021-01-09 04:00:00 2.3 2 Este 14 Este 1.4 -- -- 95
2021-01-09 03:00:00 2.6 5 Nordeste 21 Nordeste 1.6 -- -- 95
2021-01-09 02:00:00 2.7 7 Nordeste 20 Nordeste 1.2 -- -- 96
2021-01-09 01:00:00 2.7 8 Nordeste 21 Nordeste 1 -- -- 95
2021-01-09 00:00:00 2.7 7 Nordeste 20 Nordeste 1 -- -- 96
2021-01-08 23:00:00 2.6 4 Nordeste 23 Nordeste 1.2 -- -- 95
2021-01-08 22:00:00 2.9 8 Nordeste 20 Nordeste 1.4 -- -- 95
2021-01-08 21:00:00 4 9 Nordeste 25 Nordeste 1.2 -- -- 95
2021-01-08 20:00:00 4.3 13 Nordeste 31 Nordeste 0.8 -- -- 96
2021-01-08 19:00:00 4 10 Nordeste 30 Este 1.2 -- -- 95
2021-01-08 18:00:00 4 17 Nordeste 34 Nordeste 1.4 -- -- 96
2021-01-08 17:00:00 3.5 6 Nordeste 22 Norte 1.4 -- -- 95
2021-01-08 16:00:00 3.6 9 Nordeste 20 Nordeste 2 -- -- 95
2021-01-08 15:00:00 3.3 10 Nordeste 22 Nordeste 1 -- -- 94
2021-01-08 14:00:00 3.5 11 Nordeste 21 Nordeste 0.8 -- -- 93
2021-01-08 13:00:00 3.6 4 Este 9 Este 1.4 -- -- 94
2021-01-08 12:00:00 3.3 5 Nordeste 15 Norte 1.4 -- -- 93
2021-01-08 11:00:00 3.8 6 Nordeste 15 Norte 1.2 -- -- 96
2021-01-08 10:00:00 2.8 0 Calma 3 Sudoeste 0.8 -- -- 96
2021-01-08 09:00:00 2.6 0 Calma 5 Sudoeste 0.6 -- -- 96
2021-01-08 08:00:00 2.5 3 Oeste 5 Oeste 0.2 -- -- 95
2021-01-08 07:00:00 2.6 0 Calma 5 Norte 0.4 -- -- 94
2021-01-08 06:00:00 2.6 3 Norte 10 Norte 0.4 -- -- 93
2021-01-08 05:00:00 2.3 2 Noroeste 7 Oeste 0.8 -- -- 94
2021-01-08 04:00:00 2.1 3 Noroeste 8 Norte 1.2 -- -- 95
2021-01-08 03:00:00 1.6 2 Oeste 7 Oeste 1.6 -- -- 96
2021-01-08 02:00:00 1.5 4 Oeste 8 Oeste 1.8 -- -- 94
2021-01-08 01:00:00 2.1 4 Oeste 6 Noroeste 1.6 -- -- 94
2021-01-08 00:00:00 2.6 5 Nordeste 9 Nordeste 1.2 -- -- 95
2021-01-07 23:00:00 2.7 2 Oeste 4 Sudeste 0.8 -- -- 94
2021-01-07 22:00:00 3 0 Calma 3 Sudoeste 0.6 -- -- 94
2021-01-07 21:00:00 3.1 0 Calma 7 Sudoeste 0.6 -- -- 93
2021-01-07 20:00:00 3.3 2 Oeste 4 Oeste 0.4 -- -- 92
2021-01-07 19:00:00 3.7 2 Nordeste 4 Nordeste 0.4 -- -- 93
2021-01-07 18:00:00 3.9 0 Calma 9 Nordeste 0.2 -- -- 93
2021-01-07 17:00:00 4.3 2 Nordeste 10 Norte 0.4 -- -- 91
2021-01-07 16:00:00 4.4 0 Calma 6 Norte 0.4 -- -- 91
2021-01-07 15:00:00 4.1 2 Sur 3 Sudoeste 0.2 -- -- 89
2021-01-07 14:00:00 4 0 Calma 12 Nordeste 0.4 -- -- 91
2021-01-07 13:00:00 4.1 3 Nordeste 9 Norte 0.6 -- -- 90
2021-01-07 12:00:00 4.3 3 Norte 18 Nordeste 0.8 -- -- 89
2021-01-07 11:00:00 4.2 8 Nordeste 17 Nordeste 1.2 -- -- 92
2021-01-07 10:00:00 4.3 5 Nordeste 17 Norte 1.4 -- -- 93
2021-01-07 09:00:00 4 3 Nordeste 9 Este 1 -- -- 95
2021-01-07 08:00:00 3.9 0 Calma 4 Sudoeste 0.8 -- -- 94
2021-01-07 07:00:00 3.9 0 Calma 6 Nordeste 1.4 -- -- 94
2021-01-07 06:00:00 3.9 0 Calma 5 Nordeste 0.8 -- -- 94
2021-01-07 05:00:00 3.9 0 Calma 3 Sudoeste 0.6 -- -- 94
2021-01-07 04:00:00 4 0 Calma 3 Sudoeste 0.4 -- -- 93
2021-01-07 03:00:00 3.9 0 Calma 2 Norte 0.6 -- -- 92
2021-01-07 02:00:00 3.6 0 Calma 7 Noroeste 0.8 -- -- 91
2021-01-07 01:00:00 3.6 3 Nordeste 9 Sudoeste 0.2 -- -- 85
2021-01-07 00:00:00 3.7 2 Sudoeste 3 Sudoeste 0 -- -- 80
2021-01-06 23:00:00 3.6 2 Sudoeste 5 Sudoeste 0 -- -- 76
2021-01-06 22:00:00 3.7 0 Calma 6 Sudoeste 0 -- -- 74
2021-01-06 21:00:00 3.4 0 Calma 8 Sudoeste 0 -- -- 74
2021-01-06 20:00:00 3.6 3 Oeste 8 Oeste 0 -- -- 70
2021-01-06 19:00:00 4.2 2 Oeste 5 Noroeste 0 -- -- 66
2021-01-06 18:00:00 6.7 2 Sudoeste 8 Nordeste 0 -- -- 55
2021-01-06 17:00:00 8.3 3 Este 13 Este 0 -- -- 49
2021-01-06 16:00:00 10.2 5 Sudeste 13 Sudeste 0 -- -- 39
2021-01-06 15:00:00 10.5 5 Este 13 Este 0 -- -- 40
2021-01-06 14:00:00 10.4 4 Sudeste 10 Este 0 -- -- 41
2021-01-06 13:00:00 9.5 6 Este 11 Este 0 -- -- 46
2021-01-06 12:00:00 8.3 3 Sudeste 6 Sudeste 0 -- -- 48
2021-01-06 11:00:00 6 3 Sudeste 7 Sudoeste 0 -- -- 58
2021-01-06 10:00:00 2.9 2 Sudoeste 5 Sudoeste 0 -- -- 66
2021-01-06 09:00:00 -1.9 0 Calma 7 Sudoeste 0 -- -- 81
2021-01-06 08:00:00 -2.7 2 Sudoeste 4 Sudoeste 0 -- -- 82
2021-01-06 07:00:00 -2.2 0 Calma 7 Sudoeste 0 -- -- 81
2021-01-06 06:00:00 -2.4 2 Sudoeste 5 Sudoeste 0 -- -- 83
2021-01-06 05:00:00 -2.1 0 Calma 6 Sudoeste 0 -- -- 80
2021-01-06 04:00:00 -2.1 0 Calma 6 Sudoeste 0 -- -- 79
2021-01-06 03:00:00 -1.9 2 Sudoeste 6 Oeste 0 -- -- 79
2021-01-06 02:00:00 -1.5 3 Sudoeste 5 Sudoeste 0 -- -- 80
2021-01-06 01:00:00 -1.3 0 Calma 4 Noroeste 0 -- -- 76
2021-01-06 00:00:00 -0.5 0 Calma 3 Norte 0 -- -- 75
2021-01-05 23:00:00 -0.4 0 Calma 6 Norte 0 -- -- 72
2021-01-05 22:00:00 0.2 0 Calma 7 Norte 0 -- -- 70
2021-01-05 21:00:00 2 3 Sudoeste 12 Sudoeste 0 -- -- 62
2021-01-05 20:00:00 2.7 6 Sudoeste 11 Oeste 0 -- -- 60
2021-01-05 19:00:00 2.7 2 Sudeste 6 Noroeste 0 -- -- 60
2021-01-05 18:00:00 4.7 2 Sudoeste 10 Sudoeste 0 -- -- 53
2021-01-05 17:00:00 9.4 6 Sudoeste 21 Sudoeste 0 -- -- 37
2021-01-05 16:00:00 10.4 12 Sudoeste 25 Sudoeste 0 -- -- 34
2021-01-05 15:00:00 10.7 10 Sudoeste 22 Sudoeste 0 -- -- 36
2021-01-05 14:00:00 10.8 8 Sudoeste 21 Oeste 0 -- -- 35
2021-01-05 13:00:00 10.4 10 Sudoeste 24 Sudoeste 0 -- -- 37
2021-01-05 12:00:00 9.6 6 Sudoeste 20 Sudoeste 0 -- -- 42
2021-01-05 11:00:00 6.5 11 Sudoeste 17 Sudoeste 0 -- -- 56
2021-01-05 10:00:00 3.8 0 Calma 4 Nordeste 0 -- -- 71
2021-01-05 09:00:00 -1.8 0 Calma 8 Norte 0 -- -- 88
2021-01-05 08:00:00 -0.8 2 Sudoeste 13 Sudoeste 0 -- -- 85
2021-01-05 07:00:00 -0.1 5 Sudoeste 13 Sudoeste 0 -- -- 86
2021-01-05 06:00:00 -1.1 0 Calma 6 Norte 0 -- -- 86
2021-01-05 05:00:00 0.2 0 Calma 8 Sudoeste 0 -- -- 82
2021-01-05 04:00:00 2.2 0 Calma 16 Sudoeste 0 -- -- 75
2021-01-05 03:00:00 3.5 5 Sudoeste 21 Sudoeste 0 -- -- 73
2021-01-05 02:00:00 3.9 7 Oeste 25 Oeste 0 -- -- 73
2021-01-05 01:00:00 3.8 6 Oeste 32 Oeste 0 -- -- 72
2021-01-05 00:00:00 4.7 17 Sudoeste 35 Sudoeste 0 -- -- 70
2021-01-04 23:00:00 4.3 11 Sudoeste 24 Sudoeste 0 -- -- 71
2021-01-04 22:00:00 4.7 11 Sudoeste 22 Sudoeste 0 -- -- 70
2021-01-04 21:00:00 4.5 7 Oeste 17 Sur 0 -- -- 69
2021-01-04 20:00:00 4.1 5 Oeste 17 Sudoeste 0 -- -- 67
2021-01-04 19:00:00 4 2 Noroeste 15 Sur 0 -- -- 65
2021-01-04 18:00:00 6.2 5 Sudoeste 29 Oeste 0 -- -- 57
2021-01-04 17:00:00 7.8 12 Sudoeste 30 Sudoeste 0 -- -- 51
2021-01-04 16:00:00 8.5 13 Sudoeste 43 Sudoeste 0 -- -- 49
2021-01-04 15:00:00 8.9 10 Sudoeste 39 Sudoeste 0 -- -- 50
2021-01-04 14:00:00 7.6 8 Oeste 31 Sudoeste 0 -- -- 55
2021-01-04 13:00:00 8.9 12 Sudoeste 36 Sudoeste 0 -- -- 51
2021-01-04 12:00:00 8.7 15 Sudoeste 29 Sudoeste 0 -- -- 52
2021-01-04 11:00:00 8.3 10 Sudoeste 31 Sudoeste 0 -- -- 55
2021-01-04 10:00:00 7.5 8 Sudoeste 24 Sudoeste 0 -- -- 58
2021-01-04 09:00:00 5.1 14 Sudoeste 25 Sudoeste 0 -- -- 66
2021-01-04 08:00:00 5.1 15 Sudoeste 35 Oeste 0 -- -- 65
2021-01-04 07:00:00 5.4 26 Sudoeste 47 Oeste 0 -- -- 64
2021-01-04 06:00:00 5.5 21 Sudoeste 41 Sudoeste 0 -- -- 63
2021-01-04 05:00:00 5.2 24 Sudoeste 50 Oeste 0 -- -- 64
2021-01-04 04:00:00 4.9 23 Sudoeste 40 Sudoeste 0 -- -- 64
2021-01-04 03:00:00 5.1 19 Sudoeste 33 Sudoeste 0 -- -- 62
2021-01-04 02:00:00 5.1 18 Sudoeste 33 Sudoeste 0 -- -- 60
2021-01-04 01:00:00 5.7 18 Sudoeste 39 Sudoeste 0 -- -- 56
2021-01-04 00:00:00 6.2 21 Sudoeste 42 Oeste 0 -- -- 53
2021-01-03 23:00:00 5.8 8 Noroeste 26 Noroeste 0 -- -- 52
2021-01-03 22:00:00 5.9 4 Este 19 Sudeste 0 -- -- 50
2021-01-03 21:00:00 5.8 6 Sudeste 18 Sudoeste 0 -- -- 52
2021-01-03 20:00:00 6.9 8 Sudoeste 27 Oeste 0 -- -- 50
2021-01-03 19:00:00 7.3 9 Sudoeste 35 Sudoeste 0 -- -- 50
2021-01-03 18:00:00 7.8 5 Sudoeste 24 Oeste 0 -- -- 50
2021-01-03 17:00:00 10 5 Sudoeste 27 Noroeste 0 -- -- 44
2021-01-03 16:00:00 11 8 Oeste 36 Noroeste 0 -- -- 39
2021-01-03 15:00:00 11.3 12 Sudoeste 34 Oeste 0 -- -- 39
2021-01-03 14:00:00 10.5 7 Sur 28 Sudoeste 0 -- -- 41
2021-01-03 13:00:00 9.4 14 Sudoeste 32 Norte 0 -- -- 42
2021-01-03 12:00:00 8.9 13 Sudoeste 36 Noroeste 0 -- -- 43
2021-01-03 11:00:00 7.3 13 Sudoeste 36 Sudoeste 0 -- -- 45
2021-01-03 10:00:00 5.4 11 Sudoeste 36 Sudoeste 0 -- -- 52
2021-01-03 09:00:00 2.7 12 Oeste 39 Sudoeste 0 -- -- 58
2021-01-03 08:00:00 2.7 13 Sudoeste 28 Oeste 0 -- -- 55
2021-01-03 07:00:00 2.7 9 Sudoeste 30 Sudoeste 0 -- -- 52
2021-01-03 06:00:00 2.8 7 Sudoeste 29 Sudoeste 0 -- -- 52
2021-01-03 05:00:00 2.9 6 Oeste 30 Oeste 0 -- -- 53
2021-01-03 04:00:00 3.2 6 Oeste 26 Oeste 0 -- -- 53
2021-01-03 03:00:00 3.8 9 Sudoeste 26 Sudoeste 0 -- -- 53
2021-01-03 02:00:00 4 7 Sudoeste 26 Oeste 0 -- -- 54
2021-01-03 01:00:00 4.4 8 Oeste 24 Sudoeste 0 -- -- 51
2021-01-03 00:00:00 4.8 10 Sudoeste 30 Noroeste 0 -- -- 49
2021-01-02 23:00:00 4.8 8 Oeste 27 Noroeste 0 -- -- 54
2021-01-02 22:00:00 4.8 8 Sudoeste 31 Sudoeste 0 -- -- 54
2021-01-02 21:00:00 4.9 8 Sudoeste 26 Sudoeste 0 -- -- 52
2021-01-02 20:00:00 5.3 6 Sudoeste 27 Sudoeste 0 -- -- 53
2021-01-02 19:00:00 5.8 6 Oeste 25 Sudoeste 0 -- -- 52
2021-01-02 18:00:00 6.4 6 Sudoeste 32 Sudoeste 0 -- -- 50
2021-01-02 17:00:00 7.3 13 Sudoeste 30 Oeste 0 -- -- 47
2021-01-02 16:00:00 8.9 8 Oeste 40 Sudoeste 0 -- -- 43
2021-01-02 15:00:00 9.3 13 Oeste 37 Sudoeste 0 -- -- 42
2021-01-02 14:00:00 8.9 15 Sudoeste 41 Sudoeste 0 -- -- 43